createdAt,value
2024-02-24T00:01:52.608Z,97711.53
2024-02-24T00:04:20.792Z,97687.63
2024-02-24T00:06:49.964Z,97662.13
2024-02-24T00:09:18.689Z,97752.16
2024-02-24T00:11:46.642Z,97634.06
2024-02-24T00:14:14.645Z,97660.38
2024-02-24T00:16:42.688Z,97709.19
2024-02-24T00:19:10.602Z,97679.28
2024-02-24T00:21:38.609Z,97573.84
2024-02-24T00:24:07.989Z,97538.84
2024-02-24T00:26:35.925Z,97560.72
2024-02-24T00:29:03.917Z,97753.81
2024-02-24T00:31:31.952Z,97616.53
2024-02-24T00:34:02.759Z,97643.22
2024-02-24T00:36:30.708Z,97569.94
2024-02-24T00:38:58.554Z,97839.22
2024-02-24T00:41:27.841Z,97623.03
2024-02-24T00:43:55.749Z,97430.47
2024-02-24T00:46:23.743Z,97309.72
2024-02-24T00:48:51.881Z,97771.81
2024-02-24T00:51:22.453Z,97440.06
2024-02-24T00:53:50.381Z,97392.63
2024-02-24T00:56:18.377Z,97491.91
2024-02-24T00:58:47.694Z,97594.94
2024-02-24T01:01:16.502Z,97744.22
2024-02-24T01:03:44.480Z,97489.44
2024-02-24T01:06:12.471Z,97794.31
2024-02-24T01:08:40.449Z,97536.75
2024-02-24T01:11:08.569Z,97669.63
2024-02-24T01:13:36.466Z,97715.28
2024-02-24T01:16:06.365Z,97792.28
2024-02-24T01:18:34.383Z,97592.97
2024-02-24T01:21:08.237Z,97684.16
2024-02-24T01:23:36.187Z,97593.28
2024-02-24T01:26:04.674Z,97694.94
2024-02-24T01:28:32.732Z,97351.53
2024-02-24T01:31:00.555Z,97527.56
2024-02-24T01:33:29.919Z,97574.28
2024-02-24T01:35:57.895Z,97797.22
2024-02-24T01:38:25.774Z,97532.13
2024-02-24T01:40:55.886Z,97670.50
2024-02-24T01:43:24.847Z,97868.53
2024-02-24T01:45:53.319Z,97835.56
2024-02-24T01:48:21.463Z,97624.47
2024-02-24T01:50:51.350Z,97636.28
2024-02-24T01:53:19.466Z,97777.88
2024-02-24T01:55:47.767Z,97477.19
2024-02-24T01:58:15.753Z,97375.28
2024-02-24T02:00:43.892Z,97791.09
2024-02-24T02:03:11.953Z,97648.78
2024-02-24T02:05:40.019Z,97771.22
2024-02-24T02:08:09.575Z,97637.19
2024-02-24T02:10:47.381Z,97476.84
2024-02-24T02:13:15.442Z,97586.88
2024-02-24T02:15:43.476Z,97601.22
2024-02-24T02:18:11.776Z,97568.47
2024-02-24T02:20:39.794Z,97664.41
2024-02-24T02:23:09.250Z,97467.66
2024-02-24T02:25:37.508Z,97678.50
2024-02-24T02:28:06.361Z,97566.91
2024-02-24T02:30:34.339Z,97707.06
2024-02-24T02:33:02.495Z,97752.50
2024-02-24T02:35:30.523Z,97587.84
2024-02-24T02:37:58.453Z,97402.91
2024-02-24T02:40:27.768Z,97767.31
2024-02-24T02:42:55.732Z,97623.28
2024-02-24T02:45:23.662Z,97573.31
2024-02-24T02:47:52.028Z,97650.16
2024-02-24T02:50:19.992Z,97652.38
2024-02-24T02:52:48.063Z,97527.72
2024-02-24T02:55:16.097Z,97539.88
2024-02-24T02:57:45.354Z,97716.38
2024-02-24T03:00:14.106Z,97628.84
2024-02-24T03:02:41.968Z,97580.06
2024-02-24T03:05:10.754Z,97752.66
2024-02-24T03:07:38.935Z,97316.66
2024-02-24T03:10:07.880Z,97465.78
2024-02-24T03:12:35.906Z,97662.19
2024-02-24T03:15:05.785Z,97469.91
2024-02-24T03:17:33.792Z,97622.19
2024-02-24T03:20:01.685Z,97759.63
2024-02-24T03:22:29.519Z,97539.69
2024-02-24T03:24:57.365Z,97754.13
2024-02-24T03:27:25.278Z,97595.84
2024-02-24T03:29:53.177Z,97686.22
2024-02-24T03:32:22.581Z,97586.25
2024-02-24T03:34:50.486Z,97809.88
2024-02-24T03:37:18.322Z,97664.22
2024-02-24T03:39:46.193Z,97660.00
2024-02-24T03:42:14.062Z,97486.66
2024-02-24T03:44:42.001Z,97653.69
2024-02-24T03:47:09.971Z,97558.28
2024-02-24T03:49:39.275Z,97590.56
2024-02-24T03:52:08.000Z,97696.38
2024-02-24T03:54:35.891Z,97663.19
2024-02-24T03:57:03.772Z,97626.31
2024-02-24T03:59:31.620Z,97776.00
2024-02-24T04:01:59.391Z,97808.75
2024-02-24T04:04:27.289Z,97740.38
2024-02-24T04:06:56.546Z,97626.91
2024-02-24T04:09:24.720Z,97721.44
2024-02-24T04:11:54.072Z,97678.66
2024-02-24T04:14:22.051Z,97730.09
2024-02-24T04:16:49.905Z,97702.72
2024-02-24T04:19:17.779Z,97607.44
2024-02-24T04:21:46.215Z,97661.34
2024-02-24T04:24:14.505Z,97765.22
2024-02-24T04:26:42.933Z,97895.38
2024-02-24T04:29:11.000Z,97842.44
2024-02-24T04:31:38.928Z,97696.66
2024-02-24T04:34:06.859Z,97801.41
2024-02-24T04:36:34.654Z,97869.53
2024-02-24T04:39:02.586Z,97796.91
2024-02-24T04:41:31.767Z,97770.34
2024-02-24T04:43:59.574Z,97537.56
2024-02-24T04:46:27.446Z,97767.13
2024-02-24T04:48:55.594Z,97499.69
2024-02-24T04:51:23.740Z,97486.50
2024-02-24T04:53:51.625Z,97647.28
2024-02-24T04:56:19.522Z,97718.13
2024-02-24T04:58:48.730Z,97672.09
2024-02-24T05:01:18.141Z,97881.94
2024-02-24T05:03:46.653Z,97693.53
2024-02-24T05:06:14.709Z,97693.53
2024-02-24T05:08:45.113Z,97691.88
2024-02-24T05:11:13.325Z,97687.53
2024-02-24T05:13:41.665Z,97662.31
2024-02-24T05:16:11.903Z,97590.19
2024-02-24T05:18:40.000Z,97616.88
2024-02-24T05:21:07.870Z,97558.09
2024-02-24T05:23:36.292Z,97841.34
2024-02-24T05:26:04.326Z,97676.72
2024-02-24T05:28:32.201Z,97906.31
2024-02-24T05:30:59.983Z,97597.44
2024-02-24T05:33:29.304Z,97924.59
2024-02-24T05:35:57.308Z,97870.66
2024-02-24T05:38:25.202Z,97900.22
2024-02-24T05:40:53.183Z,97533.53
2024-02-24T05:43:21.019Z,97741.78
2024-02-24T05:45:48.915Z,97692.09
2024-02-24T05:48:16.919Z,97804.78
2024-02-24T05:50:46.220Z,97565.72
2024-02-24T05:53:14.069Z,97708.31
2024-02-24T05:55:42.021Z,97815.06
2024-02-24T05:58:10.536Z,97738.56
2024-02-24T06:00:38.600Z,97817.41
2024-02-24T06:03:09.019Z,97517.91
2024-02-24T06:05:37.014Z,98021.38
2024-02-24T06:08:07.574Z,97710.06
2024-02-24T06:10:38.823Z,97913.34
2024-02-24T06:13:08.131Z,97739.84
2024-02-24T06:15:35.949Z,97827.78
2024-02-24T06:18:03.843Z,97707.34
2024-02-24T06:20:31.654Z,97816.13
2024-02-24T06:22:59.488Z,97664.88
2024-02-24T06:25:28.643Z,97884.97
2024-02-24T06:27:56.444Z,97738.41
2024-02-24T06:30:24.276Z,97899.09
2024-02-24T06:32:52.130Z,97910.78
2024-02-24T06:35:20.288Z,97875.03
2024-02-24T06:37:51.243Z,97869.78
2024-02-24T06:40:26.122Z,97911.53
2024-02-24T06:43:02.517Z,97912.88
2024-02-24T06:45:30.369Z,97618.78
2024-02-24T06:47:58.229Z,97756.63
2024-02-24T06:50:26.095Z,97941.91
2024-02-24T06:52:53.942Z,97644.28
2024-02-24T06:55:21.850Z,97893.38
2024-02-24T06:57:50.404Z,97845.28
2024-02-24T07:00:20.256Z,97756.09
2024-02-24T07:02:48.315Z,97771.66
2024-02-24T07:05:16.293Z,97667.75
2024-02-24T07:07:44.276Z,97832.22
2024-02-24T07:10:12.144Z,97946.41
2024-02-24T07:12:43.306Z,97645.66
2024-02-24T07:15:12.581Z,97960.13
2024-02-24T07:17:42.695Z,97787.19
2024-02-24T07:20:12.121Z,97924.94
2024-02-24T07:22:40.065Z,97873.25
2024-02-24T07:25:09.734Z,97784.69
2024-02-24T07:27:37.554Z,97973.81
2024-02-24T07:30:06.404Z,97975.41
2024-02-24T07:32:38.718Z,97935.06
2024-02-24T07:35:10.556Z,97897.78
2024-02-24T07:37:38.578Z,97909.25
2024-02-24T07:40:07.321Z,97812.81
2024-02-24T07:42:35.301Z,97702.25
2024-02-24T07:45:03.405Z,97748.84
2024-02-24T07:47:31.452Z,98003.19
2024-02-24T07:50:00.319Z,97800.31
2024-02-24T07:52:29.604Z,97962.75
2024-02-24T07:54:57.583Z,97785.81
2024-02-24T07:57:25.550Z,97759.47
2024-02-24T07:59:53.422Z,97831.59
2024-02-24T08:02:21.427Z,97874.56
2024-02-24T08:04:49.349Z,97926.56
2024-02-24T08:07:17.439Z,97961.28
2024-02-24T08:09:47.586Z,98044.47
2024-02-24T08:12:15.606Z,98024.38
2024-02-24T08:14:43.698Z,97862.88
2024-02-24T08:17:13.152Z,98033.00
2024-02-24T08:19:41.191Z,98101.72
2024-02-24T08:22:09.230Z,97938.44
2024-02-24T08:24:37.188Z,97956.16
2024-02-24T08:27:07.030Z,98032.16
2024-02-24T08:29:35.094Z,98072.91
2024-02-24T08:32:03.031Z,97675.75
2024-02-24T08:34:31.153Z,97957.88
2024-02-24T08:36:59.243Z,97821.75
2024-02-24T08:39:27.227Z,97657.09
2024-02-24T08:41:55.167Z,98055.03
2024-02-24T08:44:24.812Z,97946.47
2024-02-24T08:46:52.992Z,97968.81
2024-02-24T08:49:21.417Z,97982.69
2024-02-24T08:51:49.443Z,97923.09
2024-02-24T08:54:21.875Z,98083.44
2024-02-24T08:56:49.960Z,98000.00
2024-02-24T08:59:18.486Z,98088.91
2024-02-24T09:01:47.967Z,97934.78
2024-02-24T09:04:16.253Z,97877.41
2024-02-24T09:06:45.586Z,97645.50
2024-02-24T09:09:16.001Z,97903.44
2024-02-24T09:11:44.717Z,98010.34
2024-02-24T09:14:13.092Z,97864.97
2024-02-24T09:16:41.130Z,98093.69
2024-02-24T09:19:10.626Z,98001.38
2024-02-24T09:21:38.811Z,98020.13
2024-02-24T09:24:07.379Z,98140.00
2024-02-24T09:26:35.258Z,97885.72
2024-02-24T09:29:03.433Z,98118.16
2024-02-24T09:31:31.438Z,97816.84
2024-02-24T09:33:59.728Z,97939.53
2024-02-24T09:36:29.415Z,98150.91
2024-02-24T09:38:57.492Z,98083.94
2024-02-24T09:41:25.699Z,98142.03
2024-02-24T09:43:53.744Z,98142.84
2024-02-24T09:46:22.421Z,97837.16
2024-02-24T09:48:50.869Z,98147.22
2024-02-24T09:51:18.895Z,98096.88
2024-02-24T09:53:48.263Z,97798.72
2024-02-24T09:56:16.287Z,98058.09
2024-02-24T09:58:44.180Z,97862.16
2024-02-24T10:01:13.861Z,97787.72
2024-02-24T10:03:42.333Z,98000.22
2024-02-24T10:06:12.398Z,98083.56
2024-02-24T10:08:40.510Z,98108.13
2024-02-24T10:11:10.773Z,98136.97
2024-02-24T10:13:38.822Z,98046.69
2024-02-24T10:16:08.580Z,98179.50
2024-02-24T10:18:36.558Z,98158.78
2024-02-24T10:21:05.594Z,98056.28
2024-02-24T10:23:34.201Z,98139.28
2024-02-24T10:26:02.186Z,98255.25
2024-02-24T10:28:31.424Z,97978.72
2024-02-24T10:30:59.716Z,98014.31
2024-02-24T10:33:27.782Z,98122.06
2024-02-24T10:35:56.103Z,98312.50
2024-02-24T10:38:34.396Z,97852.97
2024-02-24T10:41:07.679Z,98097.69
2024-02-24T10:43:37.289Z,98121.88
2024-02-24T10:46:05.300Z,97993.31
2024-02-24T10:48:33.279Z,98110.84
2024-02-24T10:51:01.327Z,98137.63
2024-02-24T10:53:29.496Z,98001.25
2024-02-24T10:55:58.002Z,98180.47
2024-02-24T10:58:25.853Z,98060.69
2024-02-24T11:00:55.713Z,98114.91
2024-02-24T11:03:23.692Z,98253.50
2024-02-24T11:05:52.728Z,98305.50
2024-02-24T11:08:37.072Z,98147.56
2024-02-24T11:11:06.475Z,98166.25
2024-02-24T11:13:34.926Z,98239.31
2024-02-24T11:16:09.827Z,98240.44
2024-02-24T11:18:56.264Z,98135.53
2024-02-24T11:21:44.305Z,98190.13
2024-02-24T11:24:20.184Z,98157.28
2024-02-24T11:26:49.444Z,98244.66
2024-02-24T11:29:19.013Z,98304.22
2024-02-24T11:31:48.531Z,98082.31
2024-02-24T11:34:17.017Z,98050.97
2024-02-24T11:36:45.079Z,98074.91
2024-02-24T11:39:14.377Z,98225.88
2024-02-24T11:41:42.823Z,98126.97
2024-02-24T11:44:11.048Z,98034.44
2024-02-24T11:46:40.213Z,98298.19
2024-02-24T11:49:09.558Z,98137.63
2024-02-24T11:51:37.444Z,98213.53
2024-02-24T11:54:05.456Z,97937.03
2024-02-24T11:56:33.660Z,98117.88
2024-02-24T12:02:49.583Z,98180.06
2024-02-24T12:05:19.013Z,98261.66
2024-02-24T12:07:46.982Z,98148.00
2024-02-24T12:10:15.053Z,98030.13
2024-02-24T12:12:43.027Z,98142.63
2024-02-24T12:15:11.501Z,98204.91
2024-02-24T12:17:42.013Z,98168.94
2024-02-24T12:20:10.914Z,98127.47
2024-02-24T12:22:41.495Z,98155.00
2024-02-24T12:25:15.696Z,98176.00
2024-02-24T12:27:43.769Z,98127.75
2024-02-24T12:30:13.652Z,98252.41
2024-02-24T12:32:43.442Z,98204.13
2024-02-24T12:35:11.536Z,98017.53
2024-02-24T12:37:42.689Z,98087.28
2024-02-24T12:40:18.617Z,98166.34
2024-02-24T12:42:46.484Z,97978.63
2024-02-24T12:45:14.315Z,98270.03
2024-02-24T12:47:42.109Z,98249.16
2024-02-24T12:50:10.723Z,98176.78
2024-02-24T12:52:40.296Z,98330.44
2024-02-24T12:55:08.570Z,98182.41
2024-02-24T12:57:36.372Z,98137.41
2024-02-24T13:00:07.019Z,98050.53
2024-02-24T13:02:34.926Z,98234.31
2024-02-24T13:05:03.096Z,97874.63
2024-02-24T13:07:32.378Z,98277.25
2024-02-24T13:10:01.849Z,98101.22
2024-02-24T13:12:29.912Z,98224.81
2024-02-24T13:14:58.233Z,98184.78
2024-02-24T13:17:26.525Z,98195.63
2024-02-24T13:19:54.431Z,98110.56
2024-02-24T13:22:22.182Z,98179.28
2024-02-24T13:24:49.999Z,98190.44
2024-02-24T13:27:19.151Z,98083.66
2024-02-24T13:29:47.114Z,98272.75
2024-02-24T13:32:14.925Z,98284.94
2024-02-24T13:34:42.835Z,98217.03
2024-02-24T13:37:14.417Z,98226.22
2024-02-24T13:39:42.174Z,98300.38
2024-02-24T13:42:09.993Z,98091.97
2024-02-24T13:44:39.296Z,98138.22
2024-02-24T13:47:07.660Z,98110.47
2024-02-24T13:49:35.526Z,98129.94
2024-02-24T13:52:04.704Z,98025.81
2024-02-24T13:54:32.689Z,98253.88
2024-02-24T13:57:00.611Z,98072.22
2024-02-24T13:59:28.434Z,98288.03
2024-02-24T14:01:58.550Z,98285.03
2024-02-24T14:04:26.369Z,98368.97
2024-02-24T14:06:54.422Z,98195.69
2024-02-24T14:09:22.262Z,98151.06
2024-02-24T14:11:50.111Z,98175.31
2024-02-24T14:14:18.024Z,98089.94
2024-02-24T14:16:46.843Z,98310.13
2024-02-24T14:19:17.684Z,98123.59
2024-02-24T14:21:46.991Z,98130.78
2024-02-24T14:24:14.913Z,98286.97
2024-02-24T14:26:42.805Z,98233.63
2024-02-24T14:29:10.581Z,98245.31
2024-02-24T14:31:38.410Z,98125.38
2024-02-24T14:34:06.282Z,98292.88
2024-02-24T14:36:35.563Z,98130.59
2024-02-24T14:39:05.074Z,98180.72
2024-02-24T14:41:33.978Z,98199.28
2024-02-24T14:44:02.145Z,98267.75
2024-02-24T14:46:29.915Z,98271.59
2024-02-24T14:48:57.862Z,97963.59
2024-02-24T14:51:25.815Z,98138.91
2024-02-24T14:53:55.111Z,98327.06
2024-02-24T14:56:23.074Z,98169.16
2024-02-24T14:58:50.870Z,98232.72
2024-02-24T15:01:18.790Z,98193.72
2024-02-24T15:03:48.106Z,98190.00
2024-02-24T15:06:16.961Z,98194.63
2024-02-24T15:08:44.955Z,98224.84
2024-02-24T15:11:14.406Z,98163.44
2024-02-24T15:13:42.405Z,98098.25
2024-02-24T15:16:10.209Z,98172.72
2024-02-24T15:18:38.174Z,97954.63
2024-02-24T15:21:06.805Z,98232.38
2024-02-24T15:23:34.738Z,98282.97
2024-02-24T15:26:02.766Z,98276.78
2024-02-24T15:28:31.959Z,98385.47
2024-02-24T15:30:59.765Z,98140.34
2024-02-24T15:33:27.612Z,98468.22
2024-02-24T15:35:56.531Z,98333.38
2024-02-24T15:38:24.547Z,98361.56
2024-02-24T15:40:52.432Z,98278.44
2024-02-24T15:43:20.587Z,98299.47
2024-02-24T15:45:49.906Z,98372.94
2024-02-24T15:48:17.760Z,98253.00
2024-02-24T15:50:48.512Z,98008.84
2024-02-24T15:53:16.271Z,98270.84
2024-02-24T15:55:44.052Z,98236.13
2024-02-24T15:58:11.915Z,98387.16
2024-02-24T16:00:39.764Z,98220.84
2024-02-24T16:03:09.914Z,98174.78
2024-02-24T16:05:37.784Z,98233.13
2024-02-24T16:08:06.848Z,98336.56
2024-02-24T16:10:35.374Z,98244.75
2024-02-24T16:13:04.370Z,98098.75
2024-02-24T16:15:32.287Z,98320.97
2024-02-24T16:18:00.149Z,98191.09
2024-02-24T16:20:29.453Z,98342.81
2024-02-24T16:22:57.203Z,98298.88
2024-02-24T16:25:26.804Z,98257.19
2024-02-24T16:27:54.605Z,98396.13
2024-02-24T16:30:22.402Z,98311.81
2024-02-24T16:32:52.074Z,98257.91
2024-02-24T16:35:20.036Z,98291.66
2024-02-24T16:37:49.680Z,98315.53
2024-02-24T16:40:17.530Z,98303.81
2024-02-24T16:42:45.299Z,98179.59
2024-02-24T16:45:13.273Z,98260.97
2024-02-24T16:47:41.332Z,98341.53
2024-02-24T16:50:11.957Z,98210.00
2024-02-24T16:52:40.272Z,98184.59
2024-02-24T16:55:11.089Z,98188.53
2024-02-24T16:57:39.123Z,98445.06
2024-02-24T17:00:10.137Z,98354.28
2024-02-24T17:02:42.812Z,98209.66
2024-02-24T17:05:12.259Z,98181.72
2024-02-24T17:07:40.264Z,98395.59
2024-02-24T17:10:10.136Z,98466.53
2024-02-24T17:12:38.164Z,98299.63
2024-02-24T17:15:08.797Z,98334.28
2024-02-24T17:17:38.260Z,98537.72
2024-02-24T17:20:09.180Z,98458.03
2024-02-24T17:22:38.055Z,98306.38
2024-02-24T17:25:07.088Z,98580.34
2024-02-24T17:27:36.360Z,98167.19
2024-02-24T17:30:04.461Z,98271.06
2024-02-24T17:32:33.176Z,98329.31
2024-02-24T17:35:01.020Z,98398.50
2024-02-24T17:37:29.461Z,98470.16
2024-02-24T17:39:57.463Z,98257.31
2024-02-24T17:42:25.227Z,98438.41
2024-02-24T17:44:54.537Z,98208.25
2024-02-24T17:47:22.593Z,98410.59
2024-02-24T17:49:50.442Z,98525.38
2024-02-24T17:52:18.368Z,98465.59
2024-02-24T17:54:46.234Z,98428.78
2024-02-24T17:57:14.215Z,98625.41
2024-02-24T17:59:42.728Z,98413.34
2024-02-24T18:02:12.686Z,98472.09
2024-02-24T18:04:42.058Z,98197.41
2024-02-24T18:07:09.918Z,98470.97
2024-02-24T18:09:40.206Z,98393.63
2024-02-24T18:12:09.008Z,98516.31
2024-02-24T18:14:37.320Z,98533.72
2024-02-24T18:17:05.572Z,98529.47
2024-02-24T18:19:34.885Z,98533.88
2024-02-24T18:22:02.853Z,98530.44
2024-02-24T18:24:30.622Z,98533.03
2024-02-24T18:26:58.671Z,98530.44
2024-02-24T18:29:26.892Z,98523.44
2024-02-24T18:31:54.940Z,98535.59
2024-02-24T18:34:23.050Z,98532.91
2024-02-24T18:36:52.416Z,98535.50
2024-02-24T18:39:20.297Z,98524.34
2024-02-24T18:41:48.668Z,98525.97
2024-02-24T18:44:17.130Z,98496.81
2024-02-24T18:46:46.173Z,98519.06
2024-02-24T18:49:14.104Z,98518.22
2024-02-24T18:51:42.096Z,98520.00
2024-02-24T18:54:11.279Z,98520.16
2024-02-24T18:56:39.128Z,98527.06
2024-02-24T18:59:06.970Z,98530.56
2024-02-24T19:01:34.964Z,98529.69
2024-02-24T19:04:03.014Z,98534.94
2024-02-24T19:06:31.131Z,98532.44
2024-02-24T19:08:58.981Z,98519.56
2024-02-24T19:11:29.336Z,98528.13
2024-02-24T19:13:57.243Z,98513.53
2024-02-24T19:16:25.185Z,98523.88
2024-02-24T19:18:56.157Z,98538.53
2024-02-24T19:21:28.276Z,98530.78
2024-02-24T19:23:56.062Z,98536.00
2024-02-24T19:26:24.127Z,98539.41
2024-02-24T19:28:53.299Z,98536.84
2024-02-24T19:31:25.410Z,98520.56
2024-02-24T19:33:53.651Z,98550.78
2024-02-24T19:36:21.741Z,98540.38
2024-02-24T19:38:49.671Z,98527.41
2024-02-24T19:41:17.467Z,98539.53
2024-02-24T19:43:51.101Z,98534.34
2024-02-24T19:46:20.209Z,98541.25
2024-02-24T19:48:49.347Z,98546.47
2024-02-24T19:51:26.154Z,98525.84
2024-02-24T19:53:54.115Z,98532.69
2024-02-24T19:56:22.056Z,98554.41
2024-02-24T19:58:56.101Z,98550.06
2024-02-24T20:01:26.223Z,98546.69
2024-02-24T20:03:54.532Z,98545.81
2024-02-24T20:06:24.555Z,98541.50
2024-02-24T20:08:52.558Z,98549.38
2024-02-24T20:11:20.974Z,98536.53
2024-02-24T20:13:49.106Z,98558.91
2024-02-24T20:16:17.059Z,98546.81
2024-02-24T20:18:46.282Z,98556.28
2024-02-24T20:21:15.746Z,98528.84
2024-02-24T20:23:44.707Z,98543.47
2024-02-24T20:26:13.733Z,98552.16
2024-02-24T20:28:44.900Z,98544.28
2024-02-24T20:31:14.427Z,98550.31
2024-02-24T20:33:53.222Z,98535.88
2024-02-24T20:36:29.027Z,98562.56
2024-02-24T20:39:00.106Z,98555.59
2024-02-24T20:41:30.053Z,98566.03
2024-02-24T20:43:59.126Z,98563.38
2024-02-24T20:46:26.939Z,98565.09
2024-02-24T20:49:05.246Z,98559.91
2024-02-24T20:51:34.451Z,98562.50
2024-02-24T20:54:03.142Z,98561.63
2024-02-24T20:56:31.139Z,98569.41
2024-02-24T20:58:58.872Z,98553.81
2024-02-24T21:01:28.122Z,98560.78
2024-02-24T21:03:58.961Z,98553.91
2024-02-24T21:06:26.925Z,98544.47
2024-02-24T21:08:56.134Z,98560.91
2024-02-24T21:11:24.125Z,98558.22
2024-02-24T21:13:52.051Z,98567.75
2024-02-24T21:16:20.101Z,98561.72
2024-02-24T21:18:50.328Z,98553.16
2024-02-24T21:21:18.151Z,98547.06
2024-02-24T21:23:48.509Z,98534.94
2024-02-24T21:26:19.990Z,98534.06
2024-02-24T21:28:47.731Z,98531.34
2024-02-24T21:31:15.626Z,98540.03
2024-02-24T21:33:43.575Z,98523.56
2024-02-24T21:36:11.915Z,98539.16
2024-02-24T21:38:39.830Z,98520.94
2024-02-24T21:41:07.880Z,98532.16
2024-02-24T21:43:42.278Z,98526.97
2024-02-24T21:46:11.260Z,98524.28
2024-02-24T21:48:39.330Z,98510.34
2024-02-24T21:51:08.820Z,98500.91
2024-02-24T21:53:36.795Z,98518.16
2024-02-24T21:56:04.839Z,98517.41
2024-02-24T21:58:32.606Z,98526.00
2024-02-24T22:01:01.945Z,98499.19
2024-02-24T22:03:29.780Z,98518.16
2024-02-24T22:05:57.865Z,98508.69
2024-02-24T22:08:25.755Z,98503.47
2024-02-24T22:10:53.664Z,98521.69
2024-02-24T22:13:21.539Z,98510.53
2024-02-24T22:15:49.258Z,98520.03
2024-02-24T22:18:18.604Z,98514.91
2024-02-24T22:20:46.429Z,98511.50
2024-02-24T22:23:14.393Z,98524.53
2024-02-24T22:25:42.092Z,98508.94
2024-02-24T22:28:11.290Z,98508.94
2024-02-24T22:30:39.353Z,98495.28
2024-02-24T22:33:07.508Z,98480.50
2024-02-24T22:35:38.291Z,98507.28
2024-02-24T22:38:06.248Z,98491.84
2024-02-24T22:40:34.322Z,98499.53
2024-02-24T22:43:02.325Z,98501.19
2024-02-24T22:45:30.332Z,98484.81
2024-02-24T22:47:58.161Z,98488.25
2024-02-24T22:50:27.226Z,98477.91
2024-02-24T22:52:56.329Z,98489.03
2024-02-24T22:55:27.309Z,98489.03
2024-02-24T22:57:56.144Z,98471.81
2024-02-24T23:00:24.043Z,98478.72
2024-02-24T23:02:52.116Z,98475.19
2024-02-24T23:05:19.903Z,98474.28
2024-02-24T23:07:48.844Z,98474.28
2024-02-24T23:10:18.099Z,98472.47
2024-02-24T23:12:45.978Z,98469.00
2024-02-24T23:15:13.907Z,98463.91
2024-02-24T23:17:44.494Z,98465.56
2024-02-24T23:20:12.734Z,98451.72
2024-02-24T23:22:40.569Z,98458.69
2024-02-24T23:25:08.954Z,98460.34
2024-02-24T23:27:38.092Z,98449.06
2024-02-24T23:30:07.088Z,98450.91
2024-02-24T23:32:35.050Z,98460.28
2024-02-24T23:35:03.932Z,98467.19
2024-02-24T23:37:31.719Z,98462.78
2024-02-24T23:39:59.558Z,98450.63
2024-02-24T23:42:27.296Z,98437.66
2024-02-24T23:44:56.482Z,98445.31
2024-02-24T23:47:24.338Z,98459.06
2024-02-24T23:49:52.340Z,98457.34
2024-02-24T23:52:20.106Z,98442.66
2024-02-24T23:54:48.036Z,98443.25
2024-02-24T23:57:15.847Z,98461.44
2024-02-24T23:59:44.005Z,98455.34
